createdAt,value
2018-03-06T00:01:52.908Z,0.70
2018-03-06T00:04:21.319Z,0.69
2018-03-06T00:06:49.665Z,0.67
2018-03-06T00:09:18.067Z,0.65
2018-03-06T00:11:48.341Z,0.63
2018-03-06T00:14:18.873Z,0.61
2018-03-06T00:16:48.242Z,0.61
2018-03-06T00:19:16.579Z,0.59
2018-03-06T00:21:44.915Z,0.56
2018-03-06T00:24:13.271Z,0.55
2018-03-06T00:26:41.606Z,0.54
2018-03-06T00:29:11.732Z,0.53
2018-03-06T00:31:40.076Z,0.51
2018-03-06T00:34:08.445Z,0.50
2018-03-06T00:36:37.586Z,0.48
2018-03-06T00:39:06.038Z,0.46
2018-03-06T00:41:34.592Z,0.46
2018-03-06T00:44:02.929Z,0.44
2018-03-06T00:46:31.248Z,0.43
2018-03-06T00:48:59.628Z,0.42
2018-03-06T00:51:28.094Z,0.40
2018-03-06T00:53:59.071Z,0.39
2018-03-06T00:56:28.288Z,0.36
2018-03-06T00:58:57.483Z,0.35
2018-03-06T01:01:28.509Z,0.32
2018-03-06T01:03:56.912Z,0.31
2018-03-06T01:06:25.291Z,0.30
2018-03-06T01:08:53.609Z,0.29
2018-03-06T01:11:22.791Z,0.28
2018-03-06T01:13:51.140Z,0.27
2018-03-06T01:16:19.595Z,0.25
2018-03-06T01:18:47.944Z,0.24
2018-03-06T01:21:16.393Z,0.23
2018-03-06T01:23:45.803Z,0.21
2018-03-06T01:26:16.867Z,0.20
2018-03-06T01:28:45.298Z,0.19
2018-03-06T01:31:13.629Z,0.18
2018-03-06T01:33:42.025Z,0.16
2018-03-06T01:36:14.830Z,0.14
2018-03-06T01:38:43.178Z,0.13
2018-03-06T01:41:11.510Z,0.13
2018-03-06T01:43:39.842Z,0.12
2018-03-06T01:46:08.183Z,0.12
2018-03-06T01:48:36.537Z,0.12
2018-03-06T01:51:04.881Z,0.11
2018-03-06T01:53:33.331Z,0.10
2018-03-06T01:56:01.677Z,0.10
2018-03-06T01:58:30.054Z,0.08
2018-03-06T02:00:58.459Z,0.07
2018-03-06T02:03:26.804Z,0.06
2018-03-06T02:05:55.187Z,0.05
2018-03-06T02:08:23.501Z,0.05
2018-03-06T02:10:51.911Z,0.04
2018-03-06T02:13:20.454Z,0.04
2018-03-06T02:15:48.934Z,0.05
2018-03-06T02:18:17.374Z,0.05
2018-03-06T02:20:45.829Z,0.06
2018-03-06T02:23:14.197Z,0.07
2018-03-06T02:25:42.555Z,0.08
2018-03-06T02:28:11.722Z,0.07
2018-03-06T02:30:41.673Z,0.08
2018-03-06T02:33:10.058Z,0.06
2018-03-06T02:35:38.508Z,0.04
2018-03-06T02:38:08.709Z,0.02
2018-03-06T02:40:37.092Z,0.01
2018-03-06T02:43:07.348Z,0.00
2018-03-06T02:45:35.727Z,0.00
2018-03-06T02:48:04.866Z,-0.01
2018-03-06T02:50:33.229Z,0.00
2018-03-06T02:53:04.439Z,0.00
2018-03-06T02:55:32.896Z,0.00
2018-03-06T02:58:02.016Z,-0.01
2018-03-06T03:00:32.118Z,-0.02
2018-03-06T03:03:02.648Z,-0.02
2018-03-06T03:05:31.154Z,-0.01
2018-03-06T03:07:59.546Z,0.00
2018-03-06T03:10:29.472Z,-0.01
2018-03-06T03:12:57.803Z,-0.01
2018-03-06T03:15:26.184Z,-0.02
2018-03-06T03:17:55.616Z,-0.02
2018-03-06T03:20:25.798Z,0.00
2018-03-06T03:22:54.183Z,0.00
2018-03-06T03:25:22.600Z,0.01
2018-03-06T03:27:50.972Z,0.02
2018-03-06T03:30:19.403Z,0.00
2018-03-06T03:32:49.442Z,0.00
2018-03-06T03:35:17.874Z,0.00
2018-03-06T03:37:46.239Z,-0.01
2018-03-06T03:40:16.260Z,-0.01
2018-03-06T03:42:44.713Z,-0.02
2018-03-06T03:45:14.999Z,-0.02
2018-03-06T03:47:43.376Z,-0.03
2018-03-06T03:50:11.754Z,-0.03
2018-03-06T03:52:42.697Z,-0.04
2018-03-06T03:55:12.710Z,-0.05
2018-03-06T03:57:41.038Z,-0.06
2018-03-06T04:00:11.159Z,-0.06
2018-03-06T04:02:39.529Z,-0.06
2018-03-06T04:05:07.874Z,-0.06
2018-03-06T04:07:37.954Z,-0.07
2018-03-06T04:10:06.460Z,-0.07
2018-03-06T04:12:34.905Z,-0.06
2018-03-06T04:15:03.384Z,-0.07
2018-03-06T04:17:33.540Z,-0.07
2018-03-06T04:20:04.080Z,-0.07
2018-03-06T04:22:34.580Z,-0.07
2018-03-06T04:25:04.519Z,-0.06
2018-03-06T04:27:32.898Z,-0.05
2018-03-06T04:30:01.393Z,-0.05
2018-03-06T04:32:29.735Z,-0.05
2018-03-06T04:34:58.162Z,-0.06
2018-03-06T04:37:28.302Z,-0.06
2018-03-06T04:39:58.386Z,-0.07
2018-03-06T04:42:26.733Z,-0.07
2018-03-06T04:44:55.098Z,-0.08
2018-03-06T04:47:23.520Z,-0.07
2018-03-06T04:49:51.898Z,-0.06
2018-03-06T04:52:21.977Z,-0.07
2018-03-06T04:54:50.442Z,-0.06
2018-03-06T04:57:20.560Z,-0.08
2018-03-06T04:59:48.941Z,-0.08
2018-03-06T05:02:19.113Z,-0.09
2018-03-06T05:04:47.635Z,-0.07
2018-03-06T05:07:16.069Z,-0.07
2018-03-06T05:09:44.462Z,-0.07
2018-03-06T05:12:12.807Z,-0.09
2018-03-06T05:14:41.139Z,-0.10
2018-03-06T05:17:09.567Z,-0.11
2018-03-06T05:19:37.998Z,-0.12
2018-03-06T05:22:08.072Z,-0.13
2018-03-06T05:24:36.440Z,-0.12
2018-03-06T05:27:04.835Z,-0.11
2018-03-06T05:29:33.182Z,-0.11
2018-03-06T05:32:04.268Z,-0.12
2018-03-06T05:34:32.723Z,-0.12
2018-03-06T05:37:01.062Z,-0.12
2018-03-06T05:39:32.054Z,-0.12
2018-03-06T05:42:00.582Z,-0.11
2018-03-06T05:44:28.968Z,-0.12
2018-03-06T05:46:59.410Z,-0.13
2018-03-06T05:49:30.398Z,-0.14
2018-03-06T05:52:00.651Z,-0.17
2018-03-06T05:54:31.692Z,-0.16
2018-03-06T05:57:00.085Z,-0.17
2018-03-06T05:59:29.167Z,-0.19
2018-03-06T06:01:57.573Z,-0.17
2018-03-06T06:04:27.562Z,-0.17
2018-03-06T06:06:58.619Z,-0.17
2018-03-06T06:09:27.966Z,-0.17
2018-03-06T06:11:56.409Z,-0.16
2018-03-06T06:14:24.777Z,-0.15
2018-03-06T06:16:53.197Z,-0.17
2018-03-06T06:19:23.331Z,-0.14
2018-03-06T06:21:53.579Z,-0.11
2018-03-06T06:24:22.167Z,-0.10
2018-03-06T06:26:51.484Z,-0.08
2018-03-06T06:29:21.759Z,-0.04
2018-03-06T06:31:50.136Z,-0.03
2018-03-06T06:34:19.435Z,-0.01
2018-03-06T06:36:47.923Z,-0.01
2018-03-06T06:39:16.352Z,0.00
2018-03-06T06:41:44.942Z,0.02
2018-03-06T06:44:13.349Z,0.02
2018-03-06T06:46:43.339Z,0.03
2018-03-06T06:49:11.865Z,0.05
2018-03-06T06:51:41.844Z,0.09
2018-03-06T06:54:10.610Z,0.11
2018-03-06T06:56:38.935Z,0.13
2018-03-06T06:59:08.115Z,0.16
2018-03-06T07:01:36.557Z,0.16
2018-03-06T07:04:04.992Z,0.16
2018-03-06T07:06:33.433Z,0.18
2018-03-06T07:09:03.580Z,0.19
2018-03-06T07:11:32.069Z,0.21
2018-03-06T07:14:00.699Z,0.24
2018-03-06T07:16:29.081Z,0.25
2018-03-06T07:18:57.415Z,0.26
2018-03-06T07:21:26.593Z,0.29
2018-03-06T07:23:54.927Z,0.29
2018-03-06T07:26:24.995Z,0.32
2018-03-06T07:28:55.083Z,0.35
2018-03-06T07:31:25.330Z,0.35
2018-03-06T07:33:53.866Z,0.36
2018-03-06T07:36:22.351Z,0.36
2018-03-06T07:38:51.584Z,0.39
2018-03-06T07:41:20.758Z,0.42
2018-03-06T07:43:49.117Z,0.49
2018-03-06T07:46:17.792Z,0.53
2018-03-06T07:48:46.170Z,0.55
2018-03-06T07:51:14.554Z,0.59
2018-03-06T07:53:43.595Z,0.61
2018-03-06T07:56:12.182Z,0.63
2018-03-06T07:58:40.579Z,0.64
2018-03-06T08:01:09.028Z,0.67
2018-03-06T08:03:37.444Z,0.68
2018-03-06T08:06:08.428Z,0.71
2018-03-06T08:08:36.821Z,0.76
2018-03-06T08:11:05.396Z,0.81
2018-03-06T08:13:34.518Z,0.84
2018-03-06T08:16:03.031Z,0.83
2018-03-06T08:18:31.382Z,0.87
2018-03-06T08:20:59.760Z,0.89
2018-03-06T08:23:28.175Z,0.93
2018-03-06T08:25:56.482Z,0.99
2018-03-06T08:28:24.824Z,1.03
2018-03-06T08:30:56.053Z,1.05
2018-03-06T08:33:24.620Z,1.05
2018-03-06T08:35:53.054Z,1.07
2018-03-06T08:38:22.227Z,1.12
2018-03-06T08:40:51.326Z,1.15
2018-03-06T08:43:19.622Z,1.19
2018-03-06T08:45:47.981Z,1.19
2018-03-06T08:48:16.388Z,1.21
2018-03-06T08:50:44.768Z,1.21
2018-03-06T08:53:15.680Z,1.20
2018-03-06T08:55:44.880Z,1.14
2018-03-06T08:58:13.985Z,1.15
2018-03-06T09:00:42.414Z,1.22
2018-03-06T09:03:10.812Z,1.32
2018-03-06T09:05:40.257Z,1.41
2018-03-06T09:08:08.599Z,1.48
2018-03-06T09:10:36.918Z,1.54
2018-03-06T09:13:07.004Z,1.59
2018-03-06T09:15:35.381Z,1.64
2018-03-06T09:18:03.828Z,1.69
2018-03-06T09:20:32.222Z,1.69
2018-03-06T09:23:00.599Z,1.67
2018-03-06T09:25:29.050Z,1.67
2018-03-06T09:27:58.256Z,1.68
2018-03-06T09:30:26.712Z,1.72
2018-03-06T09:32:55.065Z,1.74
2018-03-06T09:35:23.420Z,1.79
2018-03-06T09:37:51.774Z,1.90
2018-03-06T09:40:20.157Z,1.83
2018-03-06T09:42:50.381Z,1.89
2018-03-06T09:45:20.501Z,1.93
2018-03-06T09:47:48.851Z,1.99
2018-03-06T09:50:17.288Z,2.05
2018-03-06T09:52:45.756Z,2.11
2018-03-06T09:55:17.009Z,2.12
2018-03-06T09:57:46.210Z,2.11
2018-03-06T10:00:16.269Z,2.17
2018-03-06T10:02:44.676Z,2.18
2018-03-06T10:05:13.611Z,2.02
2018-03-06T10:07:42.073Z,1.97
2018-03-06T10:10:10.432Z,2.09
2018-03-06T10:12:40.551Z,2.14
2018-03-06T10:15:09.019Z,2.21
2018-03-06T10:17:37.338Z,2.30
2018-03-06T10:20:05.678Z,2.36
2018-03-06T10:22:34.010Z,2.35
2018-03-06T10:25:02.345Z,2.31
2018-03-06T10:27:30.701Z,2.28
2018-03-06T10:29:59.002Z,2.32
2018-03-06T10:32:27.360Z,2.39
2018-03-06T10:34:58.489Z,2.46
2018-03-06T10:37:26.874Z,2.41
2018-03-06T10:39:55.354Z,2.36
2018-03-06T10:42:24.452Z,2.38
2018-03-06T10:44:55.306Z,2.39
2018-03-06T10:47:24.478Z,2.36
2018-03-06T10:49:52.866Z,2.32
2018-03-06T10:52:21.236Z,2.28
2018-03-06T10:54:51.457Z,2.31
2018-03-06T10:57:21.600Z,2.38
2018-03-06T10:59:50.074Z,2.46
2018-03-06T11:02:18.447Z,2.51
2018-03-06T11:04:46.799Z,2.55
2018-03-06T11:07:15.842Z,2.62
2018-03-06T11:09:44.248Z,2.73
2018-03-06T11:12:12.589Z,2.83
2018-03-06T11:14:40.950Z,2.88
2018-03-06T11:17:09.325Z,2.90
2018-03-06T11:19:37.650Z,2.94
2018-03-06T11:22:06.019Z,2.89
2018-03-06T11:24:34.406Z,2.91
2018-03-06T11:27:02.778Z,2.95
2018-03-06T11:29:31.170Z,2.91
2018-03-06T11:31:59.496Z,2.99
2018-03-06T11:34:29.644Z,3.04
2018-03-06T11:36:59.088Z,3.07
2018-03-06T11:39:27.643Z,3.04
2018-03-06T11:41:56.240Z,3.03
2018-03-06T11:44:24.605Z,3.06
2018-03-06T11:46:53.814Z,3.04
2018-03-06T11:49:22.134Z,2.99
2018-03-06T11:51:50.577Z,2.95
2018-03-06T11:54:20.802Z,2.97
2018-03-06T11:56:53.212Z,2.97
2018-03-06T11:59:21.794Z,2.86
2018-03-06T12:01:50.234Z,2.85
2018-03-06T12:04:18.593Z,2.82
2018-03-06T12:06:46.886Z,2.82
2018-03-06T12:09:15.520Z,2.83
2018-03-06T12:11:43.948Z,2.88
2018-03-06T12:14:12.277Z,2.86
2018-03-06T12:16:40.683Z,2.86
2018-03-06T12:19:09.046Z,2.86
2018-03-06T12:21:39.145Z,2.90
2018-03-06T12:24:07.524Z,2.95
2018-03-06T12:26:36.552Z,2.97
2018-03-06T12:29:05.034Z,3.01
2018-03-06T12:31:35.239Z,2.98
2018-03-06T12:34:03.564Z,2.98
2018-03-06T12:36:34.397Z,2.96
2018-03-06T12:39:02.806Z,2.93
2018-03-06T12:41:31.193Z,2.99
2018-03-06T12:43:59.595Z,2.99
2018-03-06T12:46:27.962Z,2.97
2018-03-06T12:48:58.308Z,3.05
2018-03-06T12:51:30.789Z,3.19
2018-03-06T12:53:59.900Z,3.23
2018-03-06T12:56:28.251Z,3.27
2018-03-06T12:58:56.723Z,3.30
2018-03-06T13:01:25.117Z,3.37
2018-03-06T13:03:53.491Z,3.44
2018-03-06T13:06:22.014Z,3.51
2018-03-06T13:08:50.993Z,3.55
2018-03-06T13:11:19.313Z,3.57
2018-03-06T13:13:47.725Z,3.57
2018-03-06T13:16:16.163Z,3.57
2018-03-06T13:18:46.724Z,3.61
2018-03-06T13:21:15.395Z,3.56
2018-03-06T13:23:43.825Z,3.50
2018-03-06T13:26:14.240Z,3.59
2018-03-06T13:28:46.407Z,3.54
2018-03-06T13:31:14.769Z,3.57
2018-03-06T13:33:43.141Z,3.64
2018-03-06T13:36:11.655Z,3.64
2018-03-06T13:38:40.713Z,3.64
2018-03-06T13:41:11.016Z,3.71
2018-03-06T13:43:39.410Z,3.80
2018-03-06T13:46:07.765Z,3.89
2018-03-06T13:48:37.885Z,4.01
2018-03-06T13:51:06.286Z,4.14
2018-03-06T13:53:34.659Z,4.19
2018-03-06T13:56:03.123Z,4.20
2018-03-06T13:58:32.464Z,4.16
2018-03-06T14:01:00.955Z,4.12
2018-03-06T14:03:29.323Z,4.06
2018-03-06T14:05:57.820Z,4.00
2018-03-06T14:08:26.145Z,3.99
2018-03-06T14:10:55.156Z,4.02
2018-03-06T14:13:23.635Z,4.02
2018-03-06T14:15:53.664Z,4.02
2018-03-06T14:18:22.098Z,4.09
2018-03-06T14:20:50.465Z,4.10
2018-03-06T14:23:18.805Z,4.13
2018-03-06T14:25:47.146Z,4.22
2018-03-06T14:28:15.606Z,4.27
2018-03-06T14:30:43.961Z,4.32
2018-03-06T14:33:12.667Z,4.33
2018-03-06T14:35:41.225Z,4.32
2018-03-06T14:38:10.524Z,4.27
2018-03-06T14:40:41.767Z,4.23
2018-03-06T14:45:44.712Z,4.24
2018-03-06T14:48:13.040Z,4.22
2018-03-06T14:50:43.118Z,4.23
2018-03-06T14:53:13.675Z,4.22
2018-03-06T14:55:42.937Z,4.27
2018-03-06T14:58:13.383Z,4.26
2018-03-06T15:00:44.315Z,4.23
2018-03-06T15:03:12.711Z,4.25
2018-03-06T15:05:41.813Z,4.25
2018-03-06T15:08:10.187Z,4.25
2018-03-06T15:10:38.533Z,4.29
2018-03-06T15:13:07.771Z,4.29
2018-03-06T15:15:36.217Z,4.26
2018-03-06T15:18:07.120Z,4.25
2018-03-06T15:20:35.647Z,4.27
2018-03-06T15:23:03.979Z,4.24
2018-03-06T15:25:32.392Z,4.17
2018-03-06T15:28:00.955Z,4.19
2018-03-06T15:30:29.287Z,4.21
2018-03-06T15:33:00.575Z,4.22
2018-03-06T15:35:28.973Z,4.16
2018-03-06T15:37:57.346Z,4.12
2018-03-06T15:40:25.671Z,4.13
2018-03-06T15:42:54.088Z,4.12
2018-03-06T15:45:22.520Z,4.07
2018-03-06T15:47:50.858Z,4.07
2018-03-06T15:50:19.290Z,4.07
2018-03-06T15:52:47.661Z,4.05
2018-03-06T15:55:17.793Z,4.05
2018-03-06T15:57:47.771Z,4.04
2018-03-06T16:00:18.796Z,4.04
2018-03-06T16:02:47.215Z,4.04
2018-03-06T16:05:15.589Z,4.01
2018-03-06T16:07:43.943Z,3.97
2018-03-06T16:10:12.347Z,3.92
2018-03-06T16:12:40.860Z,3.91
2018-03-06T16:15:09.225Z,3.89
2018-03-06T16:17:38.513Z,3.88
2018-03-06T16:20:06.916Z,3.85
2018-03-06T16:22:35.363Z,3.82
2018-03-06T16:25:03.994Z,3.81
2018-03-06T16:27:35.033Z,3.79
2018-03-06T16:30:03.496Z,3.74
2018-03-06T16:32:32.062Z,3.70
2018-03-06T16:35:00.434Z,3.68
2018-03-06T16:37:29.876Z,3.65
2018-03-06T16:39:58.208Z,3.62
2018-03-06T16:42:28.439Z,3.60
2018-03-06T16:44:56.816Z,3.58
2018-03-06T16:47:25.198Z,3.58
2018-03-06T16:49:53.581Z,3.57
2018-03-06T16:52:22.098Z,3.52
2018-03-06T16:54:52.480Z,3.51
2018-03-06T16:57:20.943Z,3.49
2018-03-06T16:59:49.342Z,3.46
2018-03-06T17:02:20.345Z,3.45
2018-03-06T17:04:48.801Z,3.44
2018-03-06T17:07:17.260Z,3.42
2018-03-06T17:09:45.658Z,3.40
2018-03-06T17:12:14.108Z,3.37
2018-03-06T17:14:44.189Z,3.35
2018-03-06T17:17:12.668Z,3.31
2018-03-06T17:19:42.880Z,3.27
2018-03-06T17:22:11.235Z,3.22
2018-03-06T17:24:39.578Z,3.21
2018-03-06T17:27:08.877Z,3.17
2018-03-06T17:29:37.319Z,3.13
2018-03-06T17:32:05.867Z,3.13
2018-03-06T17:34:34.950Z,3.11
2018-03-06T17:37:03.382Z,3.10
2018-03-06T17:39:31.685Z,3.08
2018-03-06T17:42:00.063Z,3.05
2018-03-06T17:44:28.447Z,3.03
2018-03-06T17:46:58.486Z,3.01
2018-03-06T17:49:26.937Z,3.00
2018-03-06T17:51:55.312Z,2.97
2018-03-06T17:54:24.003Z,2.95
2018-03-06T17:56:53.302Z,2.93
2018-03-06T17:59:21.756Z,2.89
2018-03-06T18:01:50.328Z,2.86
2018-03-06T18:04:20.485Z,2.82
2018-03-06T18:06:48.919Z,2.83
2018-03-06T18:09:18.192Z,2.80
2018-03-06T18:11:46.604Z,2.78
2018-03-06T18:14:15.237Z,2.76
2018-03-06T18:16:43.597Z,2.75
2018-03-06T18:19:12.027Z,2.73
2018-03-06T18:21:40.513Z,2.71
2018-03-06T18:24:08.957Z,2.68
2018-03-06T18:26:38.189Z,2.67
2018-03-06T18:29:07.596Z,2.65
2018-03-06T18:31:35.962Z,2.61
2018-03-06T18:34:05.478Z,2.58
2018-03-06T18:36:36.436Z,2.60
2018-03-06T18:39:05.908Z,2.60
2018-03-06T18:41:34.337Z,2.59
2018-03-06T18:44:02.875Z,2.59
2018-03-06T18:46:32.079Z,2.58
2018-03-06T18:49:02.237Z,2.58
2018-03-06T18:51:31.249Z,2.57
2018-03-06T18:53:59.733Z,2.54
2018-03-06T18:56:28.146Z,2.54
2018-03-06T18:58:56.580Z,2.53
2018-03-06T19:05:00.399Z,2.52
2018-03-06T19:07:28.855Z,2.52
2018-03-06T19:09:58.034Z,2.54
2018-03-06T19:12:26.421Z,2.54
2018-03-06T19:14:56.352Z,2.54
2018-03-06T19:17:27.139Z,2.51
2018-03-06T19:19:56.679Z,2.51
2018-03-06T19:22:25.117Z,2.51
2018-03-06T19:24:55.333Z,2.52
2018-03-06T19:27:23.676Z,2.51
2018-03-06T19:29:53.114Z,2.51
2018-03-06T19:32:21.458Z,2.52
2018-03-06T19:34:51.541Z,2.55
2018-03-06T19:37:19.987Z,2.56
2018-03-06T19:39:50.093Z,2.57
2018-03-06T19:42:18.489Z,2.57
2018-03-06T19:44:46.922Z,2.59
2018-03-06T19:47:15.261Z,2.60
2018-03-06T19:49:43.710Z,2.61
2018-03-06T19:52:12.300Z,2.60
2018-03-06T19:54:40.640Z,2.62
2018-03-06T19:57:10.661Z,2.62
2018-03-06T19:59:41.504Z,2.61
2018-03-06T20:02:10.126Z,2.62
2018-03-06T20:04:42.206Z,2.62
2018-03-06T20:07:10.860Z,2.59
2018-03-06T20:09:42.870Z,2.61
2018-03-06T20:12:12.991Z,2.62
2018-03-06T20:14:47.056Z,2.64
2018-03-06T20:17:18.186Z,2.63
2018-03-06T20:19:46.606Z,2.64
2018-03-06T20:22:15.221Z,2.63
2018-03-06T20:24:49.111Z,2.63
2018-03-06T20:27:17.766Z,2.63
2018-03-06T20:29:46.169Z,2.62
2018-03-06T20:32:20.188Z,2.63
2018-03-06T20:34:48.650Z,2.63
2018-03-06T20:37:17.014Z,2.64
2018-03-06T20:39:51.078Z,2.64
2018-03-06T20:42:21.374Z,2.63
2018-03-06T20:44:54.010Z,2.62
2018-03-06T20:47:22.535Z,2.62
2018-03-06T20:49:51.209Z,2.63
2018-03-06T20:52:19.676Z,2.63
2018-03-06T20:54:53.700Z,2.63
2018-03-06T20:57:23.811Z,2.62
2018-03-06T20:59:54.046Z,2.62
2018-03-06T21:02:22.441Z,2.62
2018-03-06T21:04:50.925Z,2.63
2018-03-06T21:07:19.280Z,2.61
2018-03-06T21:09:47.667Z,2.61
2018-03-06T21:12:15.996Z,2.61
2018-03-06T21:14:44.585Z,2.61
2018-03-06T21:17:15.256Z,2.61
2018-03-06T21:19:43.628Z,2.60
2018-03-06T21:22:13.780Z,2.60
2018-03-06T21:24:43.766Z,2.59
2018-03-06T21:27:12.170Z,2.59
2018-03-06T21:29:40.499Z,2.59
2018-03-06T21:32:10.582Z,2.59
2018-03-06T21:34:39.335Z,2.58
2018-03-06T21:37:07.672Z,2.58
2018-03-06T21:39:36.076Z,2.58
2018-03-06T21:42:04.454Z,2.57
2018-03-06T21:44:32.827Z,2.55
2018-03-06T21:47:01.239Z,2.54
2018-03-06T21:49:30.306Z,2.52
2018-03-06T21:54:33.482Z,2.51
2018-03-06T21:57:01.808Z,2.52
2018-03-06T21:59:30.202Z,2.54
2018-03-06T22:01:58.561Z,2.56
2018-03-06T22:04:26.963Z,2.56
2018-03-06T22:06:58.111Z,2.63
2018-03-06T22:09:26.490Z,2.62
2018-03-06T22:11:54.900Z,2.57
2018-03-06T22:14:25.458Z,2.51
2018-03-06T22:16:55.546Z,2.43
2018-03-06T22:19:25.787Z,2.40
2018-03-06T22:21:54.108Z,2.35
2018-03-06T22:24:23.199Z,2.30
2018-03-06T22:26:52.259Z,2.27
2018-03-06T22:29:20.707Z,2.24
2018-03-06T22:31:49.235Z,2.23
2018-03-06T22:34:17.621Z,2.23
2018-03-06T22:36:45.961Z,2.21
2018-03-06T22:39:14.363Z,2.19
2018-03-06T22:41:42.772Z,2.17
2018-03-06T22:44:11.210Z,2.15
2018-03-06T22:46:39.576Z,2.13
2018-03-06T22:49:08.671Z,2.12
2018-03-06T22:51:37.307Z,2.12
2018-03-06T22:54:05.670Z,2.11
2018-03-06T22:56:34.821Z,2.10
2018-03-06T22:59:03.216Z,2.10
2018-03-06T23:01:33.398Z,2.09
2018-03-06T23:04:03.640Z,2.09
2018-03-06T23:06:34.221Z,2.08
2018-03-06T23:09:02.556Z,2.04
2018-03-06T23:11:30.992Z,2.03
2018-03-06T23:14:01.705Z,2.02
2018-03-06T23:16:30.134Z,2.01
2018-03-06T23:18:58.651Z,1.99
2018-03-06T23:21:27.008Z,2.01
2018-03-06T23:23:55.354Z,2.02
2018-03-06T23:26:24.747Z,1.98
2018-03-06T23:28:53.217Z,1.93
2018-03-06T23:31:21.536Z,1.88
2018-03-06T23:33:51.913Z,1.84
2018-03-06T23:36:21.102Z,1.83
2018-03-06T23:38:51.284Z,1.82
2018-03-06T23:41:19.660Z,1.81
2018-03-06T23:43:48.014Z,1.83
2018-03-06T23:46:17.127Z,1.83
2018-03-06T23:48:45.486Z,1.83
2018-03-06T23:51:13.853Z,1.85
2018-03-06T23:53:42.355Z,1.84
2018-03-06T23:56:10.817Z,1.83
2018-03-06T23:58:39.206Z,1.81
